createdAt,value
2022-12-24T00:01:43.863Z,-2.78
2022-12-24T00:04:49.013Z,-2.63
2022-12-24T00:07:54.266Z,-2.58
2022-12-24T00:10:59.652Z,-2.56
2022-12-24T00:14:06.477Z,-2.54
2022-12-24T00:17:12.108Z,-2.55
2022-12-24T00:20:18.172Z,-2.64
2022-12-24T00:23:23.681Z,-2.62
2022-12-24T00:26:29.103Z,-2.58
2022-12-24T00:29:35.962Z,-2.86
2022-12-24T00:32:41.149Z,-2.89
2022-12-24T00:35:47.264Z,-2.95
2022-12-24T00:38:52.544Z,-2.82
2022-12-24T00:41:57.790Z,-2.78
2022-12-24T00:45:04.986Z,-2.74
2022-12-24T00:48:12.303Z,-2.78
2022-12-24T00:51:17.791Z,-2.82
2022-12-24T00:54:23.146Z,-2.85
2022-12-24T00:57:28.561Z,-3.35
2022-12-24T01:00:35.460Z,-3.24
2022-12-24T01:03:40.917Z,-2.98
2022-12-24T01:06:45.655Z,-2.79
2022-12-24T01:09:50.740Z,-2.77
2022-12-24T01:12:56.123Z,-2.86
2022-12-24T01:16:02.860Z,-2.72
2022-12-24T01:19:08.201Z,-2.76
2022-12-24T01:22:13.566Z,-2.81
2022-12-24T01:25:18.707Z,-2.78
2022-12-24T01:28:23.980Z,-2.79
2022-12-24T01:31:30.736Z,-2.94
2022-12-24T01:34:36.444Z,-2.75
2022-12-24T01:37:44.718Z,-2.72
2022-12-24T01:41:07.527Z,-2.84
2022-12-24T01:44:33.474Z,-2.74
2022-12-24T01:47:42.940Z,-2.77
2022-12-24T01:50:48.309Z,-2.77
2022-12-24T01:53:56.671Z,-2.75
2022-12-24T01:57:04.592Z,-2.87
2022-12-24T02:00:15.375Z,-2.83
2022-12-24T02:03:22.333Z,-2.95
2022-12-24T02:06:28.439Z,-2.84
2022-12-24T02:09:34.628Z,-2.76
2022-12-24T02:12:40.463Z,-2.75
2022-12-24T02:15:55.630Z,-2.81
2022-12-24T02:19:11.489Z,-2.81
2022-12-24T02:22:18.215Z,-2.73
2022-12-24T02:25:50.653Z,-2.81
2022-12-24T02:29:18.607Z,-2.91
2022-12-24T02:32:26.987Z,-2.77
2022-12-24T02:35:38.843Z,-2.83
2022-12-24T02:38:48.022Z,-2.86
2022-12-24T02:42:08.815Z,-2.79
2022-12-24T02:45:16.081Z,-2.89
2022-12-24T02:48:24.283Z,-2.99
2022-12-24T02:51:29.462Z,-2.92
2022-12-24T02:54:35.355Z,-2.86
2022-12-24T02:57:57.679Z,-2.96
2022-12-24T03:01:17.724Z,-2.90
2022-12-24T03:04:40.435Z,-2.95
2022-12-24T03:07:49.213Z,-3.11
2022-12-24T03:10:56.854Z,-3.21
2022-12-24T03:14:02.763Z,-2.98
2022-12-24T03:17:07.922Z,-2.97
2022-12-24T03:20:20.287Z,-3.00
2022-12-24T03:23:25.714Z,-3.06
2022-12-24T03:26:32.305Z,-3.11
2022-12-24T03:29:37.844Z,-3.17
2022-12-24T03:32:43.195Z,-3.19
2022-12-24T03:35:50.195Z,-3.48
2022-12-24T03:38:55.331Z,-3.45
2022-12-24T03:42:00.473Z,-3.48
2022-12-24T03:45:06.163Z,-3.34
2022-12-24T03:48:14.228Z,-3.48
2022-12-24T03:51:22.421Z,-3.35
2022-12-24T03:54:27.591Z,-3.22
2022-12-24T03:57:32.885Z,-3.11
2022-12-24T04:00:38.218Z,-3.27
2022-12-24T04:03:43.408Z,-3.31
2022-12-24T04:06:49.977Z,-3.15
2022-12-24T04:09:55.246Z,-3.13
2022-12-24T04:13:00.738Z,-3.11
2022-12-24T04:16:08.318Z,-3.19
2022-12-24T04:19:13.498Z,-3.36
2022-12-24T04:22:20.364Z,-3.22
2022-12-24T04:25:25.552Z,-3.59
2022-12-24T04:28:31.153Z,-3.22
2022-12-24T04:31:36.370Z,-3.11
2022-12-24T04:34:41.542Z,-3.14
2022-12-24T04:37:48.159Z,-3.42
2022-12-24T04:41:00.644Z,-3.40
2022-12-24T04:44:05.832Z,-3.29
2022-12-24T04:47:13.336Z,-3.33
2022-12-24T04:50:18.660Z,-3.32
2022-12-24T04:53:25.149Z,-3.19
2022-12-24T04:56:32.481Z,-3.31
2022-12-24T04:59:37.848Z,-3.18
2022-12-24T05:02:43.205Z,-3.16
2022-12-24T05:05:48.742Z,-3.17
2022-12-24T05:08:57.869Z,-3.25
2022-12-24T05:12:03.120Z,-3.33
2022-12-24T05:15:09.610Z,-3.28
2022-12-24T05:18:14.784Z,-3.19
2022-12-24T05:21:21.801Z,-3.22
2022-12-24T05:24:46.071Z,-3.25
2022-12-24T05:27:51.667Z,-3.18
2022-12-24T05:30:57.047Z,-3.17
2022-12-24T05:34:03.329Z,-3.19
2022-12-24T05:37:08.610Z,-3.26
2022-12-24T05:40:16.477Z,-3.18
2022-12-24T05:43:21.661Z,-3.37
2022-12-24T05:46:27.462Z,-3.35
2022-12-24T05:49:32.642Z,-3.51
2022-12-24T05:52:37.854Z,-3.29
2022-12-24T05:55:44.687Z,-3.22
2022-12-24T05:58:51.035Z,-3.19
2022-12-24T06:01:56.273Z,-3.34
2022-12-24T06:05:01.580Z,-3.35
2022-12-24T06:08:07.087Z,-3.19
2022-12-24T06:11:15.462Z,-3.22
2022-12-24T06:14:20.513Z,-3.18
2022-12-24T06:17:25.814Z,-3.23
2022-12-24T06:20:31.097Z,-3.46
2022-12-24T06:23:37.604Z,-3.33
2022-12-24T06:26:44.652Z,-3.22
2022-12-24T06:29:49.892Z,-3.14
2022-12-24T06:32:55.069Z,-3.12
2022-12-24T06:36:01.439Z,-3.17
2022-12-24T06:39:06.704Z,-3.20
2022-12-24T06:42:13.822Z,-3.32
2022-12-24T06:45:19.406Z,-3.20
2022-12-24T06:48:24.533Z,-3.44
2022-12-24T06:51:29.678Z,-3.48
2022-12-24T06:54:34.889Z,-3.22
2022-12-24T06:57:41.414Z,-3.31
2022-12-24T07:00:46.561Z,-3.33
2022-12-24T07:03:51.863Z,-3.42
2022-12-24T07:06:57.086Z,-3.35
2022-12-24T07:10:02.290Z,-3.19
2022-12-24T07:13:08.918Z,-3.25
2022-12-24T07:16:14.661Z,-3.27
2022-12-24T07:19:20.157Z,-3.20
2022-12-24T07:22:25.603Z,-3.20
2022-12-24T07:25:30.461Z,-3.23
2022-12-24T07:28:37.061Z,-3.23
2022-12-24T07:31:42.270Z,-3.18
2022-12-24T07:34:47.737Z,-3.14
2022-12-24T07:37:52.967Z,-3.26
2022-12-24T07:40:58.305Z,-3.37
2022-12-24T07:44:05.490Z,-3.40
2022-12-24T07:47:11.066Z,-3.38
2022-12-24T07:50:16.204Z,-3.34
2022-12-24T07:53:21.754Z,-3.37
2022-12-24T07:56:28.114Z,-3.49
2022-12-24T07:59:34.714Z,-3.48
2022-12-24T08:02:40.434Z,-3.44
2022-12-24T08:05:45.745Z,-3.34
2022-12-24T08:08:51.162Z,-3.31
2022-12-24T08:11:57.060Z,-3.44
2022-12-24T08:15:03.699Z,-3.34
2022-12-24T08:18:10.541Z,-3.40
2022-12-24T08:21:15.786Z,-3.49
2022-12-24T08:24:22.477Z,-3.69
2022-12-24T08:27:27.928Z,-3.42
2022-12-24T08:30:34.452Z,-3.89
2022-12-24T08:33:39.391Z,-3.77
2022-12-24T08:36:45.838Z,-3.74
2022-12-24T08:39:50.751Z,-3.78
2022-12-24T08:42:56.047Z,-3.91
2022-12-24T08:46:06.931Z,-3.97
2022-12-24T08:49:12.915Z,-4.02
2022-12-24T08:52:18.437Z,-4.22
2022-12-24T08:55:23.597Z,-3.82
2022-12-24T08:58:28.506Z,-3.70
2022-12-24T09:01:35.476Z,-3.68
2022-12-24T09:04:43.480Z,-3.58
2022-12-24T09:07:48.618Z,-3.61
2022-12-24T09:10:53.932Z,-3.66
2022-12-24T09:13:59.008Z,-3.55
2022-12-24T09:17:05.688Z,-3.52
2022-12-24T09:20:13.173Z,-3.50
2022-12-24T09:23:18.457Z,-3.83
2022-12-24T09:26:25.538Z,-3.72
2022-12-24T09:29:31.503Z,-4.01
2022-12-24T09:32:37.867Z,-3.87
2022-12-24T09:35:44.030Z,-3.95
2022-12-24T09:38:49.834Z,-4.04
2022-12-24T09:42:01.382Z,-3.65
2022-12-24T09:45:11.635Z,-3.73
2022-12-24T09:48:20.383Z,-3.41
2022-12-24T09:51:29.709Z,-3.31
2022-12-24T09:54:37.997Z,-3.60
2022-12-24T09:57:43.888Z,-3.33
2022-12-24T10:00:50.304Z,-3.05
2022-12-24T10:03:57.087Z,-3.27
2022-12-24T10:07:10.611Z,-3.05
2022-12-24T10:10:22.531Z,-3.23
2022-12-24T10:13:37.778Z,-3.31
2022-12-24T10:16:49.701Z,-3.01
2022-12-24T10:20:04.537Z,-2.92
2022-12-24T10:23:17.056Z,-2.83
2022-12-24T10:26:26.526Z,-2.92
2022-12-24T10:29:33.877Z,-2.98
2022-12-24T10:32:39.642Z,-2.78
2022-12-24T10:35:51.425Z,-2.74
2022-12-24T10:38:57.017Z,-2.81
2022-12-24T10:42:02.996Z,-2.74
2022-12-24T10:45:11.559Z,-2.63
2022-12-24T10:48:24.524Z,-2.55
2022-12-24T10:51:38.180Z,-2.53
2022-12-24T10:55:09.593Z,-2.48
2022-12-24T10:58:18.046Z,-2.48
2022-12-24T11:01:43.705Z,-2.51
2022-12-24T11:04:49.966Z,-2.55
2022-12-24T11:08:03.105Z,-2.58
2022-12-24T11:11:10.365Z,-2.47
2022-12-24T11:14:19.114Z,-2.59
2022-12-24T11:17:25.591Z,-2.54
2022-12-24T11:20:32.107Z,-2.44
2022-12-24T11:23:38.865Z,-2.36
2022-12-24T11:26:45.703Z,-2.35
2022-12-24T11:29:50.940Z,-2.30
2022-12-24T11:33:19.532Z,-2.27
2022-12-24T11:36:27.688Z,-2.32
2022-12-24T11:39:41.476Z,-2.30
2022-12-24T11:42:46.815Z,-2.23
2022-12-24T11:45:54.060Z,-2.37
2022-12-24T11:49:08.738Z,-2.29
2022-12-24T11:52:31.544Z,-2.32
2022-12-24T11:55:44.174Z,-2.19
2022-12-24T11:58:52.596Z,-2.34
2022-12-24T12:01:59.964Z,-2.24
2022-12-24T12:05:10.460Z,-2.23
2022-12-24T12:08:19.310Z,-2.19
2022-12-24T12:11:27.605Z,-2.26
2022-12-24T12:14:37.042Z,-2.25
2022-12-24T12:17:47.089Z,-2.22
2022-12-24T12:20:56.022Z,-2.44
2022-12-24T12:24:06.385Z,-2.38
2022-12-24T12:27:21.500Z,-2.29
2022-12-24T12:30:27.734Z,-2.27
2022-12-24T12:33:38.940Z,-2.36
2022-12-24T12:36:48.998Z,-2.40
2022-12-24T12:40:02.674Z,-2.37
2022-12-24T12:43:15.711Z,-2.40
2022-12-24T12:46:25.810Z,-2.37
2022-12-24T12:49:39.211Z,-2.49
2022-12-24T12:53:04.182Z,-2.38
2022-12-24T12:56:17.354Z,-2.33
2022-12-24T12:59:32.655Z,-2.33
2022-12-24T13:02:58.187Z,-2.49
2022-12-24T13:06:36.359Z,-2.36
2022-12-24T13:10:24.195Z,-2.38
2022-12-24T13:13:59.176Z,-2.35
2022-12-24T13:17:37.979Z,-2.41
2022-12-24T13:20:49.733Z,-2.64
2022-12-24T13:24:07.899Z,-2.48
2022-12-24T13:27:20.201Z,-2.54
2022-12-24T13:30:38.118Z,-2.47
2022-12-24T13:33:51.484Z,-2.56
2022-12-24T13:37:05.901Z,-2.54
2022-12-24T13:40:25.636Z,-2.60
2022-12-24T13:44:03.375Z,-2.74
2022-12-24T13:47:32.051Z,-2.73
2022-12-24T13:50:40.479Z,-2.66
2022-12-24T13:53:49.898Z,-2.76
2022-12-24T13:56:55.327Z,-2.70
2022-12-24T14:00:04.731Z,-2.73
2022-12-24T14:03:23.561Z,-2.59
2022-12-24T14:06:33.853Z,-2.64
2022-12-24T14:09:39.433Z,-2.57
2022-12-24T14:12:50.793Z,-2.72
2022-12-24T14:16:06.039Z,-2.74
2022-12-24T14:19:16.408Z,-2.75
2022-12-24T14:22:29.425Z,-2.80
2022-12-24T14:25:34.539Z,-2.87
2022-12-24T14:28:43.871Z,-3.15
2022-12-24T14:31:53.774Z,-3.16
2022-12-24T14:35:08.927Z,-2.94
2022-12-24T14:38:19.091Z,-3.06
2022-12-24T14:41:34.751Z,-2.86
2022-12-24T14:44:45.405Z,-3.17
2022-12-24T14:47:57.432Z,-3.25
2022-12-24T14:51:09.845Z,-3.28
2022-12-24T14:54:39.735Z,-3.31
2022-12-24T14:57:45.184Z,-3.48
2022-12-24T15:00:50.872Z,-3.61
2022-12-24T15:04:04.538Z,-3.48
2022-12-24T15:07:12.128Z,-3.47
2022-12-24T15:10:31.047Z,-3.53
2022-12-24T15:13:39.269Z,-3.33
2022-12-24T15:16:54.723Z,-3.24
2022-12-24T15:20:04.218Z,-3.36
2022-12-24T15:23:20.992Z,-3.35
2022-12-24T15:26:29.556Z,-3.31
2022-12-24T15:29:40.463Z,-3.19
2022-12-24T15:32:45.305Z,-3.48
2022-12-24T15:35:54.163Z,-3.24
2022-12-24T15:39:00.946Z,-3.51
2022-12-24T15:42:18.686Z,-3.34
2022-12-24T15:45:28.483Z,-3.36
2022-12-24T15:48:36.167Z,-3.22
2022-12-24T15:51:41.671Z,-3.33
2022-12-24T15:54:52.135Z,-3.49
2022-12-24T15:58:03.462Z,-3.42
2022-12-24T16:01:29.511Z,-3.28
2022-12-24T16:04:34.818Z,-3.45
2022-12-24T16:08:05.563Z,-3.35
2022-12-24T16:11:19.383Z,-3.77
2022-12-24T16:14:26.335Z,-3.65
2022-12-24T16:17:33.887Z,-3.65
2022-12-24T16:20:39.024Z,-3.71
2022-12-24T16:23:48.914Z,-3.65
2022-12-24T16:26:54.735Z,-3.58
2022-12-24T16:30:01.951Z,-3.46
2022-12-24T16:33:07.650Z,-3.62
2022-12-24T16:36:14.680Z,-3.47
2022-12-24T16:39:28.539Z,-3.57
2022-12-24T16:42:51.370Z,-3.77
2022-12-24T16:46:02.728Z,-3.80
2022-12-24T16:49:07.994Z,-3.56
2022-12-24T16:52:19.190Z,-3.65
2022-12-24T16:55:24.491Z,-3.87
2022-12-24T16:58:29.676Z,-3.90
2022-12-24T17:01:36.633Z,-3.94
2022-12-24T17:04:42.224Z,-4.06
2022-12-24T17:07:47.674Z,-3.99
2022-12-24T17:10:53.335Z,-4.20
2022-12-24T17:13:58.621Z,-4.34
2022-12-24T17:17:05.257Z,-4.45
2022-12-24T17:20:16.708Z,-4.24
2022-12-24T17:23:24.112Z,-4.02
2022-12-24T17:26:29.521Z,-4.06
2022-12-24T17:29:34.791Z,-4.15
2022-12-24T17:32:41.631Z,-4.07
2022-12-24T17:35:48.494Z,-4.28
2022-12-24T17:38:53.722Z,-4.20
2022-12-24T17:41:58.865Z,-4.16
2022-12-24T17:45:04.141Z,-4.18
2022-12-24T17:48:12.321Z,-4.44
2022-12-24T17:51:21.073Z,-4.50
2022-12-24T17:54:26.062Z,-4.52
2022-12-24T17:57:31.703Z,-4.59
2022-12-24T18:00:36.955Z,-4.50
2022-12-24T18:03:43.588Z,-4.75
2022-12-24T18:06:49.831Z,-4.45
2022-12-24T18:09:55.287Z,-4.57
2022-12-24T18:13:00.369Z,-4.51
2022-12-24T18:16:05.708Z,-4.49
2022-12-24T18:19:14.916Z,-4.40
2022-12-24T18:22:21.524Z,-4.39
2022-12-24T18:25:26.769Z,-4.53
2022-12-24T18:28:34.378Z,-4.47
2022-12-24T18:31:39.747Z,-4.59
2022-12-24T18:34:47.190Z,-4.60
2022-12-24T18:37:52.368Z,-4.45
2022-12-24T18:40:57.549Z,-4.58
2022-12-24T18:44:02.708Z,-4.36
2022-12-24T18:47:07.961Z,-4.31
2022-12-24T18:50:15.393Z,-4.43
2022-12-24T18:53:20.544Z,-4.47
2022-12-24T18:56:26.987Z,-4.59
2022-12-24T18:59:32.699Z,-4.23
2022-12-24T19:02:37.902Z,-4.36
2022-12-24T19:05:44.533Z,-4.49
2022-12-24T19:09:00.120Z,-4.40
2022-12-24T19:12:06.892Z,-4.26
2022-12-24T19:15:12.979Z,-4.13
2022-12-24T19:18:19.623Z,-4.03
2022-12-24T19:21:30.377Z,-3.98
2022-12-24T19:24:35.604Z,-4.09
2022-12-24T19:27:40.413Z,-4.08
2022-12-24T19:30:45.772Z,-4.37
2022-12-24T19:33:53.228Z,-4.47
2022-12-24T19:37:00.833Z,-4.44
2022-12-24T19:40:06.794Z,-4.25
2022-12-24T19:43:13.111Z,-4.41
2022-12-24T19:46:19.858Z,-4.41
2022-12-24T19:49:25.491Z,-4.45
2022-12-24T19:52:32.157Z,-4.19
2022-12-24T19:55:37.405Z,-4.15
2022-12-24T19:58:42.568Z,-4.24
2022-12-24T20:01:48.547Z,-4.25
2022-12-24T20:04:53.814Z,-4.29
2022-12-24T20:08:00.561Z,-4.30
2022-12-24T20:11:06.956Z,-4.01
2022-12-24T20:14:13.775Z,-4.24
2022-12-24T20:17:20.133Z,-3.86
2022-12-24T20:20:25.293Z,-3.86
2022-12-24T20:23:31.959Z,-3.69
2022-12-24T20:26:37.654Z,-3.74
2022-12-24T20:29:42.704Z,-3.86
2022-12-24T20:32:48.082Z,-3.73
2022-12-24T20:35:53.161Z,-3.82
2022-12-24T20:39:00.361Z,-3.71
2022-12-24T20:42:05.397Z,-3.67
2022-12-24T20:45:11.897Z,-3.54
2022-12-24T20:48:17.526Z,-3.60
2022-12-24T20:51:25.551Z,-3.84
2022-12-24T20:54:32.233Z,-3.66
2022-12-24T20:57:37.280Z,-3.51
2022-12-24T21:00:42.470Z,-3.41
2022-12-24T21:03:47.849Z,-3.41
2022-12-24T21:06:52.660Z,-3.36
2022-12-24T21:09:59.813Z,-3.42
2022-12-24T21:13:04.754Z,-3.49
2022-12-24T21:16:10.058Z,-3.34
2022-12-24T21:19:17.505Z,-3.35
2022-12-24T21:22:25.269Z,-3.88
2022-12-24T21:25:34.112Z,-3.73
2022-12-24T21:28:39.960Z,-3.70
2022-12-24T21:31:46.241Z,-4.08
2022-12-24T21:34:52.643Z,-4.34
2022-12-24T21:37:57.805Z,-4.25
2022-12-24T21:41:06.379Z,-3.82
2022-12-24T21:44:13.270Z,-3.55
2022-12-24T21:47:18.367Z,-3.68
2022-12-24T21:50:52.880Z,-3.96
2022-12-24T21:54:16.018Z,-3.97
2022-12-24T21:57:40.271Z,-3.97
2022-12-24T22:00:45.730Z,-3.63
2022-12-24T22:03:53.855Z,-3.57
2022-12-24T22:07:16.904Z,-3.49
2022-12-24T22:10:39.772Z,-3.54
2022-12-24T22:13:46.341Z,-3.35
2022-12-24T22:16:51.531Z,-3.61
2022-12-24T22:19:58.954Z,-3.51
2022-12-24T22:23:04.074Z,-3.35
2022-12-24T22:26:12.925Z,-3.16
2022-12-24T22:29:19.489Z,-3.21
2022-12-24T22:32:24.688Z,-3.15
2022-12-24T22:35:29.812Z,-3.16
2022-12-24T22:38:34.965Z,-3.09
2022-12-24T22:41:40.059Z,-3.05
2022-12-24T22:44:47.020Z,-2.92
2022-12-24T22:47:52.847Z,-2.96
2022-12-24T22:50:57.992Z,-3.04
2022-12-24T22:54:03.129Z,-3.13
2022-12-24T22:57:08.310Z,-2.97
2022-12-24T23:00:20.459Z,-3.10
2022-12-24T23:03:26.170Z,-3.22
2022-12-24T23:06:31.687Z,-3.20
2022-12-24T23:09:37.503Z,-3.13
2022-12-24T23:12:59.921Z,-3.23
2022-12-24T23:16:08.051Z,-3.17
2022-12-24T23:19:13.282Z,-3.05
2022-12-24T23:22:18.529Z,-3.06
2022-12-24T23:25:23.919Z,-2.97
2022-12-24T23:28:29.428Z,-3.15
2022-12-24T23:31:37.786Z,-3.37
2022-12-24T23:34:43.255Z,-3.29
2022-12-24T23:37:48.335Z,-3.18
2022-12-24T23:40:56.942Z,-3.15
2022-12-24T23:44:02.146Z,-3.34
2022-12-24T23:47:09.242Z,-3.27
2022-12-24T23:50:15.322Z,-3.35
2022-12-24T23:53:20.945Z,-3.55
2022-12-24T23:56:27.347Z,-3.66
2022-12-24T23:59:35.115Z,-3.66
